sensor_id;sensor_type;location;lat;lon;timestamp;pressure;altitude;pressure_sealevel;temperature;humidity
64340;BME280;63709;53.258;-8.814;2023-05-21T00:01:53;102651.75;;;17.80;100.00
64340;BME280;63709;53.258;-8.814;2023-05-21T00:04:18;102650.41;;;17.86;100.00
64340;BME280;63709;53.258;-8.814;2023-05-21T00:06:44;102651.25;;;17.86;100.00
64340;BME280;63709;53.258;-8.814;2023-05-21T00:09:09;102649.31;;;17.88;100.00
64340;BME280;63709;53.258;-8.814;2023-05-21T00:11:38;102657.44;;;17.88;100.00
64340;BME280;63709;53.258;-8.814;2023-05-21T00:14:04;102657.94;;;17.94;100.00
64340;BME280;63709;53.258;-8.814;2023-05-21T00:16:31;102646.97;;;17.84;100.00
64340;BME280;63709;53.258;-8.814;2023-05-21T00:18:56;102666.25;;;17.90;100.00
64340;BME280;63709;53.258;-8.814;2023-05-21T00:21:23;102647.22;;;17.81;100.00
64340;BME280;63709;53.258;-8.814;2023-05-21T00:23:51;102649.31;;;17.88;100.00
64340;BME280;63709;53.258;-8.814;2023-05-21T00:26:20;102653.13;;;17.86;100.00
64340;BME280;63709;53.258;-8.814;2023-05-21T00:28:46;102655.13;;;17.95;100.00
64340;BME280;63709;53.258;-8.814;2023-05-21T00:31:12;102651.44;;;17.96;100.00
64340;BME280;63709;53.258;-8.814;2023-05-21T00:33:38;102650.22;;;18.00;100.00
64340;BME280;63709;53.258;-8.814;2023-05-21T00:36:04;102648.50;;;17.99;100.00
64340;BME280;63709;53.258;-8.814;2023-05-21T00:38:31;102643.31;;;17.96;100.00
64340;BME280;63709;53.258;-8.814;2023-05-21T00:41:01;102656.06;;;17.94;100.00
64340;BME280;63709;53.258;-8.814;2023-05-21T00:43:27;102643.44;;;17.95;100.00
64340;BME280;63709;53.258;-8.814;2023-05-21T00:45:53;102646.72;;;17.87;100.00
64340;BME280;63709;53.258;-8.814;2023-05-21T00:48:21;102634.59;;;17.93;100.00
64340;BME280;63709;53.258;-8.814;2023-05-21T00:50:48;102636.22;;;17.95;100.00
64340;BME280;63709;53.258;-8.814;2023-05-21T00:53:14;102638.03;;;17.95;100.00
64340;BME280;63709;53.258;-8.814;2023-05-21T00:55:43;102630.19;;;17.92;100.00
64340;BME280;63709;53.258;-8.814;2023-05-21T00:58:09;102629.19;;;17.93;100.00
64340;BME280;63709;53.258;-8.814;2023-05-21T01:00:36;102628.09;;;17.95;100.00
64340;BME280;63709;53.258;-8.814;2023-05-21T01:03:07;102616.03;;;17.88;100.00
64340;BME280;63709;53.258;-8.814;2023-05-21T01:05:35;102626.84;;;17.88;100.00
64340;BME280;63709;53.258;-8.814;2023-05-21T01:08:01;102618.00;;;17.86;100.00
64340;BME280;63709;53.258;-8.814;2023-05-21T01:10:27;102621.31;;;17.89;100.00
64340;BME280;63709;53.258;-8.814;2023-05-21T01:12:57;102612.81;;;17.83;100.00
64340;BME280;63709;53.258;-8.814;2023-05-21T01:15:25;102621.94;;;17.93;100.00
64340;BME280;63709;53.258;-8.814;2023-05-21T01:17:53;102608.88;;;17.87;100.00
64340;BME280;63709;53.258;-8.814;2023-05-21T01:20:22;102607.81;;;17.89;100.00
64340;BME280;63709;53.258;-8.814;2023-05-21T01:22:54;102616.53;;;17.93;100.00
64340;BME280;63709;53.258;-8.814;2023-05-21T01:25:23;102622.56;;;17.97;100.00
64340;BME280;63709;53.258;-8.814;2023-05-21T01:27:50;102624.78;;;17.92;100.00
64340;BME280;63709;53.258;-8.814;2023-05-21T01:30:17;102612.47;;;17.87;100.00
64340;BME280;63709;53.258;-8.814;2023-05-21T01:33:03;102620.47;;;17.89;100.00
64340;BME280;63709;53.258;-8.814;2023-05-21T01:35:37;102613.22;;;17.89;100.00
64340;BME280;63709;53.258;-8.814;2023-05-21T01:38:13;102617.75;;;17.89;100.00
64340;BME280;63709;53.258;-8.814;2023-05-21T01:41:06;102621.44;;;17.88;100.00
64340;BME280;63709;53.258;-8.814;2023-05-21T01:43:38;102625.84;;;17.89;100.00
64340;BME280;63709;53.258;-8.814;2023-05-21T01:46:04;102613.22;;;17.89;100.00
64340;BME280;63709;53.258;-8.814;2023-05-21T01:48:33;102626.34;;;17.94;100.00
64340;BME280;63709;53.258;-8.814;2023-05-21T01:51:03;102622.06;;;17.92;100.00
64340;BME280;63709;53.258;-8.814;2023-05-21T01:53:30;102632.91;;;18.03;100.00
64340;BME280;63709;53.258;-8.814;2023-05-21T01:55:56;102625.91;;;18.00;100.00
64340;BME280;63709;53.258;-8.814;2023-05-21T01:58:22;102629.59;;;17.99;100.00
64340;BME280;63709;53.258;-8.814;2023-05-21T02:00:48;102625.50;;;17.94;100.00
64340;BME280;63709;53.258;-8.814;2023-05-21T02:03:19;102636.84;;;17.99;100.00
64340;BME280;63709;53.258;-8.814;2023-05-21T02:05:45;102635.72;;;18.01;100.00
64340;BME280;63709;53.258;-8.814;2023-05-21T02:08:12;102638.66;;;17.98;100.00
64340;BME280;63709;53.258;-8.814;2023-05-21T02:10:39;102637.16;;;17.94;100.00
64340;BME280;63709;53.258;-8.814;2023-05-21T02:13:06;102634.59;;;17.93;100.00
64340;BME280;63709;53.258;-8.814;2023-05-21T02:15:31;102636.22;;;17.95;100.00
64340;BME280;63709;53.258;-8.814;2023-05-21T02:17:58;102633.50;;;17.95;100.00
64340;BME280;63709;53.258;-8.814;2023-05-21T02:20:24;102635.47;;;17.69;100.00
64340;BME280;63709;53.258;-8.814;2023-05-21T02:22:50;102631.72;;;17.83;100.00
64340;BME280;63709;53.258;-8.814;2023-05-21T02:25:17;102629.72;;;17.74;100.00
64340;BME280;63709;53.258;-8.814;2023-05-21T02:27:44;102626.38;;;17.70;100.00
64340;BME280;63709;53.258;-8.814;2023-05-21T02:30:12;102624.13;;;17.64;100.00
64340;BME280;63709;53.258;-8.814;2023-05-21T02:32:39;102627.38;;;17.69;100.00
64340;BME280;63709;53.258;-8.814;2023-05-21T02:35:10;102633.63;;;17.70;100.00
64340;BME280;63709;53.258;-8.814;2023-05-21T02:37:36;102625.16;;;17.74;100.00
64340;BME280;63709;53.258;-8.814;2023-05-21T02:40:04;102620.44;;;17.78;100.00
64340;BME280;63709;53.258;-8.814;2023-05-21T02:42:31;102627.88;;;17.74;100.00
64340;BME280;63709;53.258;-8.814;2023-05-21T02:44:57;102637.28;;;17.69;100.00
64340;BME280;63709;53.258;-8.814;2023-05-21T02:47:23;102635.34;;;17.71;100.00
64340;BME280;63709;53.258;-8.814;2023-05-21T02:49:50;102629.94;;;17.71;100.00
64340;BME280;63709;53.258;-8.814;2023-05-21T02:52:18;102636.81;;;17.75;100.00
64340;BME280;63709;53.258;-8.814;2023-05-21T02:54:45;102632.09;;;17.78;100.00
64340;BME280;63709;53.258;-8.814;2023-05-21T02:57:11;102629.28;;;17.80;100.00
64340;BME280;63709;53.258;-8.814;2023-05-21T02:59:37;102625.81;;;17.78;100.00
64340;BME280;63709;53.258;-8.814;2023-05-21T03:02:03;102626.84;;;17.88;100.00
64340;BME280;63709;53.258;-8.814;2023-05-21T03:04:31;102603.75;;;17.60;100.00
64340;BME280;63709;53.258;-8.814;2023-05-21T03:06:58;102623.63;;;17.83;100.00
64340;BME280;63709;53.258;-8.814;2023-05-21T03:09:26;102623.41;;;17.86;100.00
64340;BME280;63709;53.258;-8.814;2023-05-21T03:11:52;102625.00;;;17.88;100.00
64340;BME280;63709;53.258;-8.814;2023-05-21T03:14:18;102628.44;;;17.90;100.00
64340;BME280;63709;53.258;-8.814;2023-05-21T03:16:49;102615.03;;;17.78;100.00
64340;BME280;63709;53.258;-8.814;2023-05-21T03:19:15;102617.75;;;17.89;100.00
64340;BME280;63709;53.258;-8.814;2023-05-21T03:21:41;102630.19;;;17.92;100.00
64340;BME280;63709;53.258;-8.814;2023-05-21T03:24:07;102622.94;;;17.92;100.00
64340;BME280;63709;53.258;-8.814;2023-05-21T03:26:34;102616.78;;;17.90;100.00
64340;BME280;63709;53.258;-8.814;2023-05-21T03:28:59;102613.84;;;17.93;100.00
64340;BME280;63709;53.258;-8.814;2023-05-21T03:31:26;102609.78;;;17.87;100.00
64340;BME280;63709;53.258;-8.814;2023-05-21T03:33:51;102610.63;;;17.88;100.00
64340;BME280;63709;53.258;-8.814;2023-05-21T03:36:18;102626.34;;;17.94;100.00
64340;BME280;63709;53.258;-8.814;2023-05-21T03:38:43;102616.53;;;17.93;100.00
64340;BME280;63709;53.258;-8.814;2023-05-21T03:41:09;102626.88;;;17.99;100.00
64340;BME280;63709;53.258;-8.814;2023-05-21T03:43:36;102620.09;;;17.94;100.00
64340;BME280;63709;53.258;-8.814;2023-05-21T03:46:02;102618.25;;;17.94;100.00
64340;BME280;63709;53.258;-8.814;2023-05-21T03:48:27;102604.72;;;17.83;100.00
64340;BME280;63709;53.258;-8.814;2023-05-21T03:50:53;102623.03;;;17.90;100.00
64340;BME280;63709;53.258;-8.814;2023-05-21T03:53:19;102621.63;;;17.74;100.00
64340;BME280;63709;53.258;-8.814;2023-05-21T03:55:45;102624.25;;;17.86;100.00
64340;BME280;63709;53.258;-8.814;2023-05-21T03:58:21;102626.22;;;17.84;100.00
64340;BME280;63709;53.258;-8.814;2023-05-21T04:00:47;102616.50;;;17.82;100.00
64340;BME280;63709;53.258;-8.814;2023-05-21T04:03:13;102609.81;;;17.75;100.00
64340;BME280;63709;53.258;-8.814;2023-05-21T04:05:47;102617.41;;;17.70;100.00
64340;BME280;63709;53.258;-8.814;2023-05-21T04:08:14;102607.47;;;17.70;100.00
64340;BME280;63709;53.258;-8.814;2023-05-21T04:10:40;102615.19;;;17.63;100.00
64340;BME280;63709;53.258;-8.814;2023-05-21T04:13:06;102619.44;;;17.55;100.00
64340;BME280;63709;53.258;-8.814;2023-05-21T04:15:31;102617.88;;;17.63;100.00
64340;BME280;63709;53.258;-8.814;2023-05-21T04:18:00;102598.66;;;17.44;100.00
64340;BME280;63709;53.258;-8.814;2023-05-21T04:20:26;102602.97;;;17.47;100.00
64340;BME280;63709;53.258;-8.814;2023-05-21T04:22:52;102606.53;;;17.47;100.00
64340;BME280;63709;53.258;-8.814;2023-05-21T04:25:17;102602.41;;;17.54;100.00
64340;BME280;63709;53.258;-8.814;2023-05-21T04:27:44;102602.56;;;17.40;100.00
64340;BME280;63709;53.258;-8.814;2023-05-21T04:30:12;102595.50;;;17.50;100.00
64340;BME280;63709;53.258;-8.814;2023-05-21T04:32:38;102604.91;;;17.45;100.00
64340;BME280;63709;53.258;-8.814;2023-05-21T04:35:04;102602.75;;;17.26;100.00
64340;BME280;63709;53.258;-8.814;2023-05-21T04:37:29;102605.03;;;17.43;100.00
64340;BME280;63709;53.258;-8.814;2023-05-21T04:39:56;102596.81;;;17.45;100.00
64340;BME280;63709;53.258;-8.814;2023-05-21T04:42:22;102594.53;;;17.51;100.00
64340;BME280;63709;53.258;-8.814;2023-05-21T04:44:50;102581.94;;;17.39;100.00
64340;BME280;63709;53.258;-8.814;2023-05-21T04:47:17;102605.38;;;17.38;100.00
64340;BME280;63709;53.258;-8.814;2023-05-21T04:49:43;102602.34;;;17.43;100.00
64340;BME280;63709;53.258;-8.814;2023-05-21T04:52:09;102595.38;;;17.52;100.00
64340;BME280;63709;53.258;-8.814;2023-05-21T04:54:35;102586.16;;;17.43;100.00
64340;BME280;63709;53.258;-8.814;2023-05-21T04:57:05;102598.66;;;17.44;100.00
64340;BME280;63709;53.258;-8.814;2023-05-21T04:59:31;102602.75;;;17.26;100.00
64340;BME280;63709;53.258;-8.814;2023-05-21T05:01:57;102603.03;;;17.34;100.00
64340;BME280;63709;53.258;-8.814;2023-05-21T05:04:23;102602.81;;;17.37;100.00
64340;BME280;63709;53.258;-8.814;2023-05-21T05:06:49;102606.88;;;17.18;100.00
64340;BME280;63709;53.258;-8.814;2023-05-21T05:09:18;102590.19;;;17.13;100.00
64340;BME280;63709;53.258;-8.814;2023-05-21T05:11:45;102598.16;;;17.15;100.00
64340;BME280;63709;53.258;-8.814;2023-05-21T05:14:11;102606.13;;;17.16;100.00
64340;BME280;63709;53.258;-8.814;2023-05-21T05:16:37;102610.66;;;17.16;100.00
64340;BME280;63709;53.258;-8.814;2023-05-21T05:19:02;102607.75;;;16.82;100.00
64340;BME280;63709;53.258;-8.814;2023-05-21T05:21:27;102611.72;;;16.89;100.00
64340;BME280;63709;53.258;-8.814;2023-05-21T05:23:53;102600.06;;;16.89;100.00
64340;BME280;63709;53.258;-8.814;2023-05-21T05:26:19;102618.75;;;16.79;100.00
64340;BME280;63709;53.258;-8.814;2023-05-21T05:28:45;102610.91;;;16.76;100.00
64340;BME280;63709;53.258;-8.814;2023-05-21T05:31:11;102619.50;;;16.68;100.00
64340;BME280;63709;53.258;-8.814;2023-05-21T05:33:38;102613.06;;;16.45;100.00
64340;BME280;63709;53.258;-8.814;2023-05-21T05:36:05;102614.13;;;16.56;100.00
64340;BME280;63709;53.258;-8.814;2023-05-21T05:38:33;102616.94;;;16.54;100.00
64340;BME280;63709;53.258;-8.814;2023-05-21T05:41:01;102620.16;;;16.59;100.00
64340;BME280;63709;53.258;-8.814;2023-05-21T05:43:26;102628.19;;;16.35;100.00
64340;BME280;63709;53.258;-8.814;2023-05-21T05:45:52;102619.75;;;16.27;100.00
64340;BME280;63709;53.258;-8.814;2023-05-21T05:48:18;102621.91;;;16.35;100.00
64340;BME280;63709;53.258;-8.814;2023-05-21T05:50:44;102622.13;;;16.44;100.00
64340;BME280;63709;53.258;-8.814;2023-05-21T05:53:10;102625.78;;;16.18;100.00
64340;BME280;63709;53.258;-8.814;2023-05-21T05:55:39;102625.69;;;16.19;100.00
64340;BME280;63709;53.258;-8.814;2023-05-21T05:58:05;102625.59;;;16.21;100.00
64340;BME280;63709;53.258;-8.814;2023-05-21T06:00:31;102614.47;;;16.00;100.00
64340;BME280;63709;53.258;-8.814;2023-05-21T06:02:57;102636.13;;;16.11;100.00
64340;BME280;63709;53.258;-8.814;2023-05-21T06:05:31;102621.69;;;16.12;100.00
64340;BME280;63709;53.258;-8.814;2023-05-21T06:07:56;102632.28;;;16.28;100.00
64340;BME280;63709;53.258;-8.814;2023-05-21T06:10:22;102641.09;;;16.17;100.00
64340;BME280;63709;53.258;-8.814;2023-05-21T06:12:48;102636.47;;;16.32;100.00
64340;BME280;63709;53.258;-8.814;2023-05-21T06:15:14;102642.59;;;16.34;100.00
64340;BME280;63709;53.258;-8.814;2023-05-21T06:17:40;102641.00;;;16.06;100.00
64340;BME280;63709;53.258;-8.814;2023-05-21T06:20:09;102641.53;;;16.11;100.00
64340;BME280;63709;53.258;-8.814;2023-05-21T06:22:36;102631.81;;;15.96;100.00
64340;BME280;63709;53.258;-8.814;2023-05-21T06:25:03;102644.41;;;16.08;100.00
64340;BME280;63709;53.258;-8.814;2023-05-21T06:27:28;102630.94;;;16.08;100.00
64340;BME280;63709;53.258;-8.814;2023-05-21T06:29:54;102641.00;;;16.06;100.00
64340;BME280;63709;53.258;-8.814;2023-05-21T06:32:22;102648.00;;;16.21;100.00
64340;BME280;63709;53.258;-8.814;2023-05-21T06:34:47;102643.78;;;16.30;100.00
64340;BME280;63709;53.258;-8.814;2023-05-21T06:37:18;102632.81;;;16.20;100.00
64340;BME280;63709;53.258;-8.814;2023-05-21T06:39:45;102640.25;;;16.30;100.00
64340;BME280;63709;53.258;-8.814;2023-05-21T06:42:11;102641.53;;;16.37;100.00
64340;BME280;63709;53.258;-8.814;2023-05-21T06:44:37;102617.81;;;16.16;100.00
64340;BME280;63709;53.258;-8.814;2023-05-21T06:47:04;102632.03;;;16.18;100.00
64340;BME280;63709;53.258;-8.814;2023-05-21T06:49:31;102639.16;;;16.19;100.00
64340;BME280;63709;53.258;-8.814;2023-05-21T06:51:56;102640.78;;;16.09;100.00
64340;BME280;63709;53.258;-8.814;2023-05-21T06:54:22;102637.97;;;16.24;100.00
64340;BME280;63709;53.258;-8.814;2023-05-21T06:56:48;102641.22;;;16.29;100.00
64340;BME280;63709;53.258;-8.814;2023-05-21T06:59:13;102648.22;;;16.06;100.00
64340;BME280;63709;53.258;-8.814;2023-05-21T07:01:39;102649.69;;;15.97;100.00
64340;BME280;63709;53.258;-8.814;2023-05-21T07:04:08;102643.16;;;16.14;100.00
64340;BME280;63709;53.258;-8.814;2023-05-21T07:06:35;102642.63;;;16.21;100.00
64340;BME280;63709;53.258;-8.814;2023-05-21T07:09:02;102649.09;;;16.32;100.00
64340;BME280;63709;53.258;-8.814;2023-05-21T07:11:28;102642.59;;;15.96;100.00
64340;BME280;63709;53.258;-8.814;2023-05-21T07:13:57;102627.94;;;16.13;100.00
64340;BME280;63709;53.258;-8.814;2023-05-21T07:16:24;102623.59;;;15.97;100.00
64340;BME280;63709;53.258;-8.814;2023-05-21T07:18:49;102640.41;;;15.88;100.00
64340;BME280;63709;53.258;-8.814;2023-05-21T07:21:15;102640.41;;;16.01;100.00
64340;BME280;63709;53.258;-8.814;2023-05-21T07:23:42;102647.44;;;16.16;100.00
64340;BME280;63709;53.258;-8.814;2023-05-21T07:26:09;102640.69;;;16.36;100.00
64340;BME280;63709;53.258;-8.814;2023-05-21T07:28:34;102644.53;;;16.45;100.00
64340;BME280;63709;53.258;-8.814;2023-05-21T07:31:00;102639.59;;;16.39;100.00
64340;BME280;63709;53.258;-8.814;2023-05-21T07:33:26;102638.81;;;16.11;100.00
64340;BME280;63709;53.258;-8.814;2023-05-21T07:35:52;102642.94;;;16.17;100.00
64340;BME280;63709;53.258;-8.814;2023-05-21T07:38:17;102643.03;;;16.41;100.00
64340;BME280;63709;53.258;-8.814;2023-05-21T07:40:43;102649.09;;;16.44;100.00
64340;BME280;63709;53.258;-8.814;2023-05-21T07:43:08;102641.53;;;16.50;100.00
64340;BME280;63709;53.258;-8.814;2023-05-21T07:45:36;102653.50;;;16.33;100.00
64340;BME280;63709;53.258;-8.814;2023-05-21T07:48:03;102651.31;;;16.12;100.00
64340;BME280;63709;53.258;-8.814;2023-05-21T07:50:30;102654.88;;;16.38;100.00
64340;BME280;63709;53.258;-8.814;2023-05-21T07:52:56;102635.59;;;16.44;100.00
64340;BME280;63709;53.258;-8.814;2023-05-21T07:55:22;102656.19;;;16.33;100.00
64340;BME280;63709;53.258;-8.814;2023-05-21T07:57:47;102654.25;;;16.60;100.00
64340;BME280;63709;53.258;-8.814;2023-05-21T08:00:14;102661.38;;;16.49;100.00
64340;BME280;63709;53.258;-8.814;2023-05-21T08:02:39;102663.53;;;16.82;100.00
64340;BME280;63709;53.258;-8.814;2023-05-21T08:05:05;102663.75;;;16.91;100.00
64340;BME280;63709;53.258;-8.814;2023-05-21T08:07:31;102663.09;;;16.88;100.00
64340;BME280;63709;53.258;-8.814;2023-05-21T08:09:59;102670.25;;;16.76;100.00
64340;BME280;63709;53.258;-8.814;2023-05-21T08:12:24;102669.78;;;16.69;100.00
64340;BME280;63709;53.258;-8.814;2023-05-21T08:14:50;102668.66;;;16.98;100.00
64340;BME280;63709;53.258;-8.814;2023-05-21T08:17:15;102668.28;;;16.78;100.00
64340;BME280;63709;53.258;-8.814;2023-05-21T08:19:42;102668.16;;;16.67;100.00
64340;BME280;63709;53.258;-8.814;2023-05-21T08:22:08;102666.78;;;16.61;100.00
64340;BME280;63709;53.258;-8.814;2023-05-21T08:24:34;102637.63;;;16.79;100.00
64340;BME280;63709;53.258;-8.814;2023-05-21T08:26:59;102665.84;;;17.12;100.00
64340;BME280;63709;53.258;-8.814;2023-05-21T08:29:25;102661.72;;;17.19;100.00
64340;BME280;63709;53.258;-8.814;2023-05-21T08:31:51;102673.22;;;17.34;100.00
64340;BME280;63709;53.258;-8.814;2023-05-21T08:34:16;102672.56;;;17.30;100.00
64340;BME280;63709;53.258;-8.814;2023-05-21T08:36:43;102675.41;;;17.16;100.00
64340;BME280;63709;53.258;-8.814;2023-05-21T08:39:11;102675.25;;;17.06;100.00
64340;BME280;63709;53.258;-8.814;2023-05-21T08:41:40;102667.78;;;17.10;100.00
64340;BME280;63709;53.258;-8.814;2023-05-21T08:44:10;102677.25;;;17.28;100.00
64340;BME280;63709;53.258;-8.814;2023-05-21T08:46:44;102682.66;;;17.15;100.00
64340;BME280;63709;53.258;-8.814;2023-05-21T08:49:14;102673.00;;;17.00;100.00
64340;BME280;63709;53.258;-8.814;2023-05-21T08:51:42;102674.69;;;17.14;100.00
64340;BME280;63709;53.258;-8.814;2023-05-21T08:54:09;102677.25;;;17.15;100.00
64340;BME280;63709;53.258;-8.814;2023-05-21T08:56:37;102674.78;;;17.12;100.00
64340;BME280;63709;53.258;-8.814;2023-05-21T08:59:05;102669.59;;;17.22;100.00
64340;BME280;63709;53.258;-8.814;2023-05-21T09:01:31;102669.09;;;17.04;100.00
64340;BME280;63709;53.258;-8.814;2023-05-21T09:03:58;102671.50;;;16.96;100.00
64340;BME280;63709;53.258;-8.814;2023-05-21T09:06:25;102668.66;;;17.10;100.00
64340;BME280;63709;53.258;-8.814;2023-05-21T09:09:04;102659.78;;;17.21;100.00
64340;BME280;63709;53.258;-8.814;2023-05-21T09:11:32;102673.78;;;17.26;100.00
64340;BME280;63709;53.258;-8.814;2023-05-21T09:13:59;102674.78;;;17.12;100.00
64340;BME280;63709;53.258;-8.814;2023-05-21T09:16:26;102679.25;;;17.01;100.00
64340;BME280;63709;53.258;-8.814;2023-05-21T09:18:51;102683.31;;;17.19;100.00
64340;BME280;63709;53.258;-8.814;2023-05-21T09:21:25;102678.13;;;17.16;100.00
64340;BME280;63709;53.258;-8.814;2023-05-21T09:23:56;102675.63;;;17.50;100.00
64340;BME280;63709;53.258;-8.814;2023-05-21T09:26:23;102677.81;;;17.45;100.00
64340;BME280;63709;53.258;-8.814;2023-05-21T09:28:50;102673.72;;;17.39;100.00
64340;BME280;63709;53.258;-8.814;2023-05-21T09:31:16;102667.28;;;17.53;100.00
64340;BME280;63709;53.258;-8.814;2023-05-21T09:33:46;102669.13;;;17.52;100.00
64340;BME280;63709;53.258;-8.814;2023-05-21T09:36:12;102665.94;;;17.47;100.00
64340;BME280;63709;53.258;-8.814;2023-05-21T09:38:38;102665.22;;;17.56;100.00
64340;BME280;63709;53.258;-8.814;2023-05-21T09:41:04;102669.81;;;17.80;100.00
64340;BME280;63709;53.258;-8.814;2023-05-21T09:43:32;102672.03;;;17.86;100.00
64340;BME280;63709;53.258;-8.814;2023-05-21T09:45:58;102665.44;;;18.01;100.00
64340;BME280;63709;53.258;-8.814;2023-05-21T09:48:40;102664.72;;;17.51;100.00
64340;BME280;63709;53.258;-8.814;2023-05-21T09:51:13;102670.66;;;17.80;100.00
64340;BME280;63709;53.258;-8.814;2023-05-21T09:53:57;102666.69;;;17.73;100.00
64340;BME280;63709;53.258;-8.814;2023-05-21T09:56:26;102666.41;;;17.65;100.00
64340;BME280;63709;53.258;-8.814;2023-05-21T09:59:01;102659.84;;;17.56;100.00
64340;BME280;63709;53.258;-8.814;2023-05-21T10:01:31;102653.81;;;17.77;100.00
64340;BME280;63709;53.258;-8.814;2023-05-21T10:04:00;102655.13;;;17.47;100.00
64340;BME280;63709;53.258;-8.814;2023-05-21T10:06:28;102658.13;;;17.55;100.00
64340;BME280;63709;53.258;-8.814;2023-05-21T10:08:55;102659.38;;;17.86;100.00
64340;BME280;63709;53.258;-8.814;2023-05-21T10:11:29;102653.13;;;17.86;100.00
64340;BME280;63709;53.258;-8.814;2023-05-21T10:14:14;102659.63;;;17.95;100.00
64340;BME280;63709;53.258;-8.814;2023-05-21T10:16:41;102651.19;;;17.99;100.00
64340;BME280;63709;53.258;-8.814;2023-05-21T10:19:07;102652.28;;;17.97;100.00
64340;BME280;63709;53.258;-8.814;2023-05-21T10:21:37;102644.84;;;18.23;100.00
64340;BME280;63709;53.258;-8.814;2023-05-21T10:24:05;102653.56;;;18.15;100.00
64340;BME280;63709;53.258;-8.814;2023-05-21T10:26:32;102640.47;;;17.86;100.00
64340;BME280;63709;53.258;-8.814;2023-05-21T10:28:58;102656.41;;;18.13;100.00
64340;BME280;63709;53.258;-8.814;2023-05-21T10:31:26;102654.50;;;17.92;100.00
64340;BME280;63709;53.258;-8.814;2023-05-21T10:33:55;102642.72;;;18.04;100.00
64340;BME280;63709;53.258;-8.814;2023-05-21T10:36:29;102655.81;;;18.21;100.00
64340;BME280;63709;53.258;-8.814;2023-05-21T10:38:55;102652.25;;;18.21;100.00
64340;BME280;63709;53.258;-8.814;2023-05-21T10:41:23;102653.19;;;18.20;100.00
64340;BME280;63709;53.258;-8.814;2023-05-21T10:44:20;102655.66;;;18.11;100.00
64340;BME280;63709;53.258;-8.814;2023-05-21T10:47:14;102641.53;;;18.30;100.00
64340;BME280;63709;53.258;-8.814;2023-05-21T10:49:57;102655.06;;;18.42;100.00
64340;BME280;63709;53.258;-8.814;2023-05-21T10:53:15;102652.28;;;18.43;100.00
64340;BME280;63709;53.258;-8.814;2023-05-21T11:00:39;102658.13;;;18.26;100.00
64340;BME280;63709;53.258;-8.814;2023-05-21T11:03:05;102642.19;;;18.45;100.00
64340;BME280;63709;53.258;-8.814;2023-05-21T11:05:53;102655.69;;;18.45;100.00
64340;BME280;63709;53.258;-8.814;2023-05-21T11:08:26;102654.84;;;17.98;100.00
64340;BME280;63709;53.258;-8.814;2023-05-21T11:10:53;102643.88;;;18.35;100.00
64340;BME280;63709;53.258;-8.814;2023-05-21T11:13:20;102657.06;;;18.40;100.00
64340;BME280;63709;53.258;-8.814;2023-05-21T11:21:16;102645.94;;;18.20;100.00
64340;BME280;63709;53.258;-8.814;2023-05-21T11:23:51;102642.69;;;18.61;100.00
64340;BME280;63709;53.258;-8.814;2023-05-21T11:26:24;102639.88;;;18.85;100.00
64340;BME280;63709;53.258;-8.814;2023-05-21T11:31:29;102634.09;;;18.79;100.00
64340;BME280;63709;53.258;-8.814;2023-05-21T11:34:13;102643.34;;;18.76;100.00
64340;BME280;63709;53.258;-8.814;2023-05-21T11:36:40;102614.03;;;18.70;100.00
64340;BME280;63709;53.258;-8.814;2023-05-21T11:39:10;102635.47;;;18.84;100.00
64340;BME280;63709;53.258;-8.814;2023-05-21T11:41:59;102635.31;;;18.52;100.00
64340;BME280;63709;53.258;-8.814;2023-05-21T11:44:44;102635.78;;;18.46;100.00
64340;BME280;63709;53.258;-8.814;2023-05-21T11:47:11;102637.16;;;18.41;100.00
64340;BME280;63709;53.258;-8.814;2023-05-21T11:49:38;102632.81;;;18.27;100.00
64340;BME280;63709;53.258;-8.814;2023-05-21T11:52:05;102619.06;;;18.41;100.00
64340;BME280;63709;53.258;-8.814;2023-05-21T11:54:39;102626.94;;;18.55;100.00
64340;BME280;63709;53.258;-8.814;2023-05-21T11:57:06;102622.03;;;18.60;100.00
64340;BME280;63709;53.258;-8.814;2023-05-21T11:59:33;102623.00;;;18.93;100.00
64340;BME280;63709;53.258;-8.814;2023-05-21T12:02:01;102621.75;;;19.08;100.00
64340;BME280;63709;53.258;-8.814;2023-05-21T12:04:31;102617.22;;;18.86;100.00
64340;BME280;63709;53.258;-8.814;2023-05-21T12:06:57;102609.22;;;18.96;100.00
64340;BME280;63709;53.258;-8.814;2023-05-21T12:09:23;102612.66;;;18.98;100.00
64340;BME280;63709;53.258;-8.814;2023-05-21T12:11:49;102613.44;;;18.78;100.00
64340;BME280;63709;53.258;-8.814;2023-05-21T12:14:16;102589.31;;;18.52;100.00
64340;BME280;63709;53.258;-8.814;2023-05-21T12:16:42;102601.63;;;18.79;100.00
64340;BME280;63709;53.258;-8.814;2023-05-21T12:19:08;102608.75;;;19.02;100.00
64340;BME280;63709;53.258;-8.814;2023-05-21T12:21:36;102610.66;;;19.12;100.00
64340;BME280;63709;53.258;-8.814;2023-05-21T12:24:02;102609.00;;;19.31;100.00
64340;BME280;63709;53.258;-8.814;2023-05-21T12:26:29;102605.97;;;19.25;100.00
64340;BME280;63709;53.258;-8.814;2023-05-21T12:28:57;102607.22;;;19.21;100.00
64340;BME280;63709;53.258;-8.814;2023-05-21T12:31:23;102610.72;;;18.89;100.00
64340;BME280;63709;53.258;-8.814;2023-05-21T12:33:51;102614.09;;;19.25;100.00
64340;BME280;63709;53.258;-8.814;2023-05-21T12:36:30;102603.53;;;19.10;100.00
64340;BME280;63709;53.258;-8.814;2023-05-21T12:38:57;102616.22;;;19.42;100.00
64340;BME280;63709;53.258;-8.814;2023-05-21T12:41:24;102614.41;;;19.31;100.00
64340;BME280;63709;53.258;-8.814;2023-05-21T12:43:50;102612.59;;;19.32;100.00
64340;BME280;63709;53.258;-8.814;2023-05-21T12:46:17;102609.94;;;19.09;100.00
64340;BME280;63709;53.258;-8.814;2023-05-21T12:48:52;102609.59;;;19.03;100.00